Time;durP1;ratioP1;P1;durP2;ratioP2;P2;SDS_P1;SDS_P2;PMS_P1;PMS_P2;Temp;Humidity;BMP_temperature;BMP_pressure;BME280_temperature;BME280_humidity;BME280_pressure;Samples;Min_cycle;Max_cycle;Signal;HPM_P1;HPM_P2
2022/11/11 00:02:22;;;;;;;44.05;26.27;;;7.20;71.50;;;;;;5996311;23;114835;-80
2022/11/11 00:05:08;;;;;;;41.85;25.27;;;7.20;71.20;;;;;;5974145;23;114659;-80
2022/11/11 00:07:58;;;;;;;44.00;28.58;;;7.20;71.20;;;;;;5974626;23;114271;-81
2022/11/11 00:10:44;;;;;;;41.55;26.23;;;7.20;71.20;;;;;;5995422;23;114473;-80
2022/11/11 00:13:30;;;;;;;41.20;26.05;;;7.20;71.10;;;;;;5992237;23;116469;-80
2022/11/11 00:16:17;;;;;;;43.78;27.10;;;7.20;71.10;;;;;;5973661;23;114687;-82
2022/11/11 00:25:26;;;;;;;51.42;28.77;;;7.30;71.10;;;;;;5995535;23;114151;-82
2022/11/11 00:28:12;;;;;;;76.88;37.50;;;7.20;71.30;;;;;;5995012;23;115150;-81
2022/11/11 00:31:04;;;;;;;69.78;36.17;;;7.20;71.00;;;;;;5974980;23;114064;-82
2022/11/11 00:33:51;;;;;;;71.78;36.63;;;7.20;70.90;;;;;;5976512;23;115810;-82
2022/11/11 00:36:37;;;;;;;75.05;36.85;;;7.20;71.00;;;;;;5995827;23;114826;-82
2022/11/11 00:39:32;;;;;;;78.25;37.15;;;7.20;71.10;;;;;;5996271;23;117155;-83
2022/11/11 00:42:17;;;;;;;71.38;38.42;;;7.10;70.80;;;;;;5996749;23;114199;-82
2022/11/11 00:45:03;;;;;;;64.10;33.13;;;7.20;70.70;;;;;;5997963;23;114056;-82
2022/11/11 00:50:59;;;;;;;55.17;29.67;;;7.10;70.50;;;;;;5995424;23;117448;-82
2022/11/11 00:53:44;;;;;;;53.05;27.90;;;7.00;70.50;;;;;;5997770;23;114849;-82
2022/11/11 00:56:30;;;;;;;44.53;26.90;;;7.10;70.50;;;;;;5976663;23;114462;-82
2022/11/11 00:59:16;;;;;;;49.08;27.23;;;7.00;70.60;;;;;;5994776;23;118290;-82
2022/11/11 01:02:01;;;;;;;47.95;25.63;;;7.00;70.60;;;;;;5997038;23;115295;-83
2022/11/11 01:04:47;;;;;;;40.03;24.52;;;7.00;70.60;;;;;;5976441;23;114279;-83
2022/11/11 01:07:33;;;;;;;41.83;26.98;;;7.00;70.70;;;;;;5976351;23;114271;-83
2022/11/11 01:10:37;;;;;;;40.67;27.88;;;7.00;70.60;;;;;;5995462;23;115081;-82
2022/11/11 01:13:24;;;;;;;43.17;26.77;;;7.00;70.50;;;;;;5978839;23;115042;-82
2022/11/11 01:16:19;;;;;;;49.25;28.73;;;6.90;70.50;;;;;;5976225;23;114279;-82
2022/11/11 01:19:05;;;;;;;44.03;26.38;;;6.90;70.30;;;;;;5976441;23;114264;-82
2022/11/11 01:21:52;;;;;;;42.10;26.00;;;6.90;70.50;;;;;;5974971;23;115761;-83
2022/11/11 01:24:38;;;;;;;36.80;23.88;;;6.80;70.40;;;;;;5996093;23;114624;-81
2022/11/11 01:27:23;;;;;;;36.70;23.48;;;6.90;70.50;;;;;;5997370;23;114131;-82
2022/11/11 01:30:12;;;;;;;32.08;21.73;;;6.80;70.40;;;;;;5997685;23;114083;-81
2022/11/11 01:32:58;;;;;;;37.25;20.98;;;6.80;70.40;;;;;;5975470;23;114913;-83
2022/11/11 01:35:45;;;;;;;27.40;19.05;;;6.80;70.40;;;;;;5995922;23;114693;-82
2022/11/11 01:38:31;;;;;;;35.58;21.35;;;6.70;70.40;;;;;;5975412;23;114296;-82
2022/11/11 01:41:36;;;;;;;30.92;19.63;;;6.70;70.50;;;;;;5975636;23;114302;-82
2022/11/11 01:44:43;;;;;;;27.88;19.15;;;6.70;70.70;;;;;;5993458;23;114960;-82
2022/11/11 01:49:17;;;;;;;33.22;21.48;;;6.70;70.60;;;;;;5974880;23;115129;-81
2022/11/11 01:50:55;;;;;;;32.28;20.23;;;6.70;70.40;;;;;;5984492;23;114278;-82
2022/11/11 01:53:41;;;;;;;29.27;18.55;;;6.70;70.60;;;;;;5975814;23;114219;-82
2022/11/11 01:56:27;;;;;;;30.50;19.70;;;6.70;70.70;;;;;;5974695;23;114968;-82
2022/11/11 01:59:13;;;;;;;28.40;19.20;;;6.60;70.80;;;;;;5974230;23;114746;-82
2022/11/11 02:01:59;;;;;;;26.80;18.25;;;6.70;70.70;;;;;;5975407;23;114562;-82
2022/11/11 02:07:48;;;;;;;32.35;21.00;;;6.70;70.60;;;;;;5977641;23;114777;-83
2022/11/11 02:10:34;;;;;;;28.70;20.15;;;6.60;70.60;;;;;;5995432;23;115972;-82
2022/11/11 02:16:24;;;;;;;28.75;18.75;;;6.60;70.80;;;;;;5998137;23;114146;-81
2022/11/11 02:19:10;;;;;;;32.53;20.17;;;6.60;70.70;;;;;;5997915;23;114991;-82
2022/11/11 02:21:59;;;;;;;31.30;19.33;;;6.60;70.70;;;;;;5994857;23;115171;-81
2022/11/11 02:24:44;;;;;;;29.40;18.77;;;6.60;70.70;;;;;;5975440;23;114429;-81
2022/11/11 02:27:30;;;;;;;27.45;18.38;;;6.50;70.80;;;;;;5976165;23;114767;-82
2022/11/11 02:30:17;;;;;;;32.25;20.20;;;6.50;70.70;;;;;;5974158;23;114887;-81
2022/11/11 02:33:04;;;;;;;26.92;18.02;;;6.50;70.80;;;;;;5995534;23;114430;-81
2022/11/11 02:35:55;;;;;;;28.67;19.05;;;6.50;70.90;;;;;;5975333;23;114906;-81
2022/11/11 02:38:41;;;;;;;28.45;17.90;;;6.50;70.80;;;;;;5985514;23;114275;-82
2022/11/11 02:44:31;;;;;;;27.77;18.40;;;6.40;70.90;;;;;;5995608;23;114945;-81
2022/11/11 02:47:17;;;;;;;26.33;16.50;;;6.40;71.00;;;;;;5997122;23;114303;-81
2022/11/11 02:50:02;;;;;;;24.95;16.75;;;6.30;70.90;;;;;;5997209;23;114057;-81
2022/11/11 02:52:48;;;;;;;26.15;17.33;;;6.30;70.90;;;;;;5993980;23;114843;-81
2022/11/11 02:55:33;;;;;;;26.92;17.48;;;6.40;71.20;;;;;;5974257;23;114944;-82
2022/11/11 02:58:19;;;;;;;24.13;17.52;;;6.40;71.00;;;;;;5996437;23;114165;-81
2022/11/11 03:01:05;;;;;;;27.77;17.35;;;6.40;71.00;;;;;;5996781;23;114477;-81
2022/11/11 03:03:51;;;;;;;26.23;17.15;;;6.40;70.90;;;;;;5994993;23;114918;-81
2022/11/11 03:06:38;;;;;;;27.30;15.73;;;6.50;71.00;;;;;;5995624;23;114804;-82
2022/11/11 03:09:24;;;;;;;25.00;15.93;;;6.50;70.90;;;;;;5975456;23;114315;-82
2022/11/11 03:12:09;;;;;;;23.08;14.82;;;6.50;71.00;;;;;;5996575;23;114498;-81
2022/11/11 03:14:55;;;;;;;23.83;15.10;;;6.50;71.10;;;;;;5996296;23;114833;-82
2022/11/11 03:17:41;;;;;;;22.65;14.55;;;6.60;71.00;;;;;;5975433;23;114705;-82
2022/11/11 03:23:31;;;;;;;20.23;14.55;;;6.60;70.80;;;;;;5996559;23;115180;-82
2022/11/11 03:26:18;;;;;;;22.45;14.85;;;6.50;71.00;;;;;;5950798;23;118232;-81
2022/11/11 03:29:03;;;;;;;22.83;14.98;;;6.50;71.10;;;;;;5995791;23;115802;-81
2022/11/11 03:31:49;;;;;;;25.48;16.42;;;6.50;71.00;;;;;;5976063;23;114456;-82
2022/11/11 03:34:34;;;;;;;21.95;14.63;;;6.50;71.00;;;;;;5976492;23;114420;-82
2022/11/11 03:40:24;;;;;;;18.25;12.95;;;6.40;70.90;;;;;;5997465;23;114636;-82
2022/11/11 03:43:14;;;;;;;21.35;13.88;;;6.30;71.10;;;;;;5976703;23;114183;-82
2022/11/11 03:46:00;;;;;;;22.52;14.65;;;6.20;71.10;;;;;;5976776;23;114237;-82
2022/11/11 03:48:46;;;;;;;20.55;14.23;;;6.30;71.30;;;;;;5975629;23;115077;-82
2022/11/11 03:51:32;;;;;;;20.63;13.70;;;6.30;71.30;;;;;;5997651;23;114651;-82
2022/11/11 03:54:17;;;;;;;20.92;13.57;;;6.30;71.30;;;;;;5998849;23;113997;-82
2022/11/11 04:00:08;;;;;;;18.92;13.77;;;6.20;71.20;;;;;;5994558;23;114883;-81
2022/11/11 04:21:52;;;;;;;19.10;13.73;;;6.20;71.50;;;;;;5999089;23;114341;-82
2022/11/11 04:27:42;;;;;;;18.50;13.27;;;6.20;71.50;;;;;;5978546;23;115205;-83
2022/11/11 04:30:28;;;;;;;21.33;13.80;;;6.20;71.50;;;;;;5975386;23;114044;-82
2022/11/11 04:33:13;;;;;;;20.75;14.27;;;6.20;71.50;;;;;;5996244;23;114616;-82
2022/11/11 04:35:58;;;;;;;18.08;13.38;;;6.30;71.50;;;;;;5994731;23;114917;-82
2022/11/11 04:41:48;;;;;;;17.77;12.32;;;6.20;71.50;;;;;;5978102;23;114352;-82
2022/11/11 04:48:17;;;;;;;18.45;12.50;;;6.20;71.70;;;;;;5977183;23;116061;-81
2022/11/11 04:51:02;;;;;;;18.75;13.13;;;6.20;71.80;;;;;;5994640;23;114690;-82
2022/11/11 04:53:48;;;;;;;19.92;14.52;;;6.10;71.80;;;;;;5974508;23;114257;-82
2022/11/11 04:56:53;;;;;;;19.73;13.32;;;6.10;72.00;;;;;;5994223;23;115242;-82
2022/11/11 04:59:38;;;;;;;19.25;12.80;;;6.10;72.00;;;;;;5993427;23;115062;-82
2022/11/11 05:08:54;;;;;;;21.63;13.80;;;6.10;72.10;;;;;;5996613;23;114041;-83
2022/11/11 05:11:41;;;;;;;19.17;13.02;;;6.10;72.30;;;;;;5995417;23;114973;-82
2022/11/11 05:26:43;;;;;;;19.77;13.13;;;6.30;72.40;;;;;;5978240;23;115710;-82
2022/11/11 05:29:28;;;;;;;21.38;15.10;;;6.40;72.20;;;;;;5974961;23;114101;-82
2022/11/11 05:32:17;;;;;;;18.83;12.20;;;6.50;72.10;;;;;;5997074;23;115246;-83
2022/11/11 05:35:04;;;;;;;19.15;12.93;;;6.50;72.10;;;;;;5974472;23;114807;-82
2022/11/11 05:40:54;;;;;;;18.05;12.98;;;6.50;72.00;;;;;;5996104;23;114114;-82
2022/11/11 05:43:40;;;;;;;22.85;12.73;;;6.60;72.00;;;;;;5996877;23;114027;-83
2022/11/11 05:46:26;;;;;;;18.98;12.80;;;6.60;72.00;;;;;;5974543;23;115015;-82
2022/11/11 05:49:14;;;;;;;20.42;12.10;;;6.60;72.00;;;;;;5974860;23;115745;-83
2022/11/11 05:51:59;;;;;;;20.70;13.40;;;6.60;72.00;;;;;;5976332;23;114295;-81
2022/11/11 05:54:45;;;;;;;18.92;12.88;;;6.60;72.00;;;;;;5975640;23;114303;-81
2022/11/11 05:57:31;;;;;;;20.08;12.85;;;6.70;71.90;;;;;;5949507;23;117850;-81
2022/11/11 06:00:17;;;;;;;18.27;12.57;;;6.70;71.90;;;;;;5994896;23;114559;-81
2022/11/11 06:03:03;;;;;;;22.85;14.07;;;6.70;71.90;;;;;;5996398;23;114322;-82
2022/11/11 06:05:48;;;;;;;21.80;13.23;;;6.70;71.80;;;;;;5993634;23;115235;-81
2022/11/11 06:08:34;;;;;;;21.63;13.45;;;6.70;71.90;;;;;;5994947;23;114208;-82
2022/11/11 06:11:20;;;;;;;19.65;13.07;;;6.70;71.90;;;;;;5994399;23;114635;-80
2022/11/11 06:14:05;;;;;;;22.50;13.60;;;6.70;71.90;;;;;;5974509;23;114437;-81
2022/11/11 06:16:51;;;;;;;22.30;13.32;;;6.70;71.90;;;;;;5994242;23;114479;-81
2022/11/11 06:19:36;;;;;;;24.17;13.65;;;6.80;71.80;;;;;;5994478;23;114865;-81
2022/11/11 06:22:55;;;;;;;20.75;12.98;;;6.80;71.80;;;;;;5994681;23;115078;-82
2022/11/11 06:28:55;;;;;;;23.33;14.55;;;6.80;71.80;;;;;;5981562;23;114292;-82
2022/11/11 06:31:41;;;;;;;22.80;13.88;;;6.90;71.80;;;;;;5972981;23;114786;-81
2022/11/11 06:34:26;;;;;;;21.63;13.90;;;6.90;71.80;;;;;;5992788;23;116712;-81
2022/11/11 06:37:12;;;;;;;24.15;13.70;;;6.90;71.60;;;;;;5950552;23;114287;-82
2022/11/11 06:39:58;;;;;;;19.25;12.32;;;7.00;71.50;;;;;;5975203;23;114375;-82
2022/11/11 06:42:43;;;;;;;18.77;12.55;;;7.00;71.50;;;;;;5969859;23;115536;-82
2022/11/11 06:45:29;;;;;;;17.98;12.18;;;7.10;71.30;;;;;;5974366;23;114552;-81
2022/11/11 06:48:15;;;;;;;17.15;11.68;;;7.10;71.40;;;;;;5995895;23;114384;-81
2022/11/11 06:51:05;;;;;;;20.45;12.10;;;7.20;72.10;;;;;;5994385;23;114302;-81
2022/11/11 06:53:50;;;;;;;19.15;12.55;;;7.20;71.70;;;;;;5971585;23;115372;-82
2022/11/11 06:56:36;;;;;;;18.30;12.02;;;7.20;71.40;;;;;;5994398;23;114720;-81
2022/11/11 06:59:21;;;;;;;17.70;11.43;;;7.40;71.50;;;;;;5974416;23;114530;-81
2022/11/11 07:02:13;;;;;;;16.40;10.68;;;7.40;71.50;;;;;;5993346;23;114614;-82
2022/11/11 07:04:59;;;;;;;15.75;11.52;;;7.50;71.10;;;;;;5994784;23;115075;-81
2022/11/11 07:07:44;;;;;;;15.93;11.18;;;7.50;70.70;;;;;;5973654;23;114762;-82
2022/11/11 07:10:30;;;;;;;18.38;12.50;;;7.50;71.00;;;;;;5995624;23;114593;-81
2022/11/11 07:13:16;;;;;;;18.67;12.07;;;7.60;70.70;;;;;;5975610;23;114626;-81
2022/11/11 07:16:01;;;;;;;17.63;12.10;;;7.70;70.70;;;;;;5994563;23;114816;-81
2022/11/11 07:18:47;;;;;;;19.50;12.98;;;7.80;70.40;;;;;;5992678;23;116866;-80
2022/11/11 07:21:33;;;;;;;15.70;10.82;;;7.90;70.10;;;;;;5995513;23;114248;-81
2022/11/11 07:24:19;;;;;;;19.52;12.30;;;8.00;69.70;;;;;;5996219;23;114358;-81
2022/11/11 07:27:04;;;;;;;17.63;11.68;;;8.10;69.70;;;;;;5994679;23;115100;-81
2022/11/11 07:29:49;;;;;;;19.58;11.52;;;8.20;69.00;;;;;;5995005;23;114675;-81
2022/11/11 07:32:35;;;;;;;19.77;11.43;;;8.20;69.00;;;;;;5996223;23;114353;-81
2022/11/11 07:35:21;;;;;;;20.67;12.50;;;8.30;68.90;;;;;;5974522;23;114265;-81
2022/11/11 07:38:07;;;;;;;19.20;11.43;;;8.40;69.00;;;;;;5973651;23;115453;-81
2022/11/11 07:40:52;;;;;;;19.00;11.88;;;8.50;68.60;;;;;;5973321;23;115233;-80
2022/11/11 07:43:41;;;;;;;17.88;10.50;;;8.60;68.30;;;;;;5974531;23;114411;-80
2022/11/11 07:46:26;;;;;;;17.40;11.45;;;8.70;68.10;;;;;;5995738;23;114418;-80
2022/11/11 07:49:11;;;;;;;18.83;10.88;;;8.70;68.10;;;;;;5994290;23;117030;-81
2022/11/11 07:52:00;;;;;;;17.42;11.05;;;8.80;67.70;;;;;;5995001;23;114600;-80
2022/11/11 07:54:45;;;;;;;16.10;10.60;;;8.90;67.70;;;;;;5996188;23;114378;-80
2022/11/11 07:57:30;;;;;;;19.10;10.32;;;8.90;67.30;;;;;;5996467;23;114238;-80
2022/11/11 08:00:16;;;;;;;15.95;10.30;;;8.90;67.20;;;;;;5949346;23;117420;-81
2022/11/11 08:03:02;;;;;;;12.88;9.63;;;8.90;67.20;;;;;;5995048;23;115068;-81
2022/11/11 08:05:54;;;;;;;15.48;9.93;;;8.90;66.80;;;;;;5976261;23;114354;-81
2022/11/11 08:08:40;;;;;;;14.68;9.82;;;8.90;66.90;;;;;;5996333;23;114396;-82
2022/11/11 08:14:29;;;;;;;19.43;10.57;;;9.00;66.80;;;;;;5993231;23;114600;-82
2022/11/11 08:17:15;;;;;;;15.02;10.23;;;9.00;66.80;;;;;;5994204;23;114474;-82
2022/11/11 08:20:01;;;;;;;16.67;10.43;;;9.10;66.60;;;;;;5995138;23;114422;-82
2022/11/11 08:22:46;;;;;;;19.55;10.73;;;9.20;66.50;;;;;;5973779;23;114796;-81
2022/11/11 08:25:52;;;;;;;15.55;10.20;;;9.30;66.40;;;;;;5996456;23;114547;-81
2022/11/11 08:28:37;;;;;;;13.95;9.73;;;9.40;66.50;;;;;;5995194;23;114247;-81
2022/11/11 08:31:23;;;;;;;18.75;10.43;;;9.50;66.20;;;;;;5996202;23;114002;-81
2022/11/11 08:34:09;;;;;;;12.75;8.15;;;9.60;65.60;;;;;;5993080;23;116855;-81
2022/11/11 08:36:54;;;;;;;13.30;9.13;;;9.60;65.20;;;;;;5994252;23;115199;-82
2022/11/11 08:39:39;;;;;;;15.25;8.93;;;9.60;65.60;;;;;;5994493;23;114972;-82
2022/11/11 08:42:26;;;;;;;23.05;9.25;;;9.70;65.70;;;;;;5995590;23;114207;-82
2022/11/11 08:45:12;;;;;;;16.38;8.52;;;9.70;65.20;;;;;;5994044;23;114912;-82
2022/11/11 08:48:00;;;;;;;23.83;9.13;;;9.70;65.50;;;;;;5948231;23;114837;-82
2022/11/11 08:50:50;;;;;;;24.48;9.45;;;9.80;65.40;;;;;;5995991;23;114297;-82
2022/11/11 08:53:36;;;;;;;18.58;10.65;;;9.90;65.00;;;;;;5975436;23;114390;-82
2022/11/11 08:56:23;;;;;;;15.38;9.25;;;10.00;65.20;;;;;;5995882;23;115867;-82
2022/11/11 08:59:10;;;;;;;50.03;12.85;;;10.10;65.10;;;;;;5995716;23;114627;-81
2022/11/11 09:01:55;;;;;;;12.65;7.78;;;10.20;64.50;;;;;;5976251;23;114248;-82
2022/11/11 09:04:40;;;;;;;88.63;17.77;;;10.30;64.40;;;;;;5972520;23;114362;-82
2022/11/11 09:07:31;;;;;;;33.53;9.90;;;10.50;64.40;;;;;;5976074;23;114924;-82
2022/11/11 09:10:17;;;;;;;59.42;12.73;;;10.70;64.10;;;;;;5975420;23;114802;-82
2022/11/11 09:13:03;;;;;;;161.20;20.67;;;10.80;63.70;;;;;;5996528;23;114276;-82
2022/11/11 09:15:48;;;;;;;13.77;8.00;;;10.90;63.30;;;;;;5976015;23;114674;-82
2022/11/11 09:18:35;;;;;;;135.00;17.95;;;11.00;63.10;;;;;;5995809;23;114973;-82
2022/11/11 09:21:20;;;;;;;139.50;19.40;;;11.10;62.90;;;;;;5996215;23;115002;-82
2022/11/11 09:24:09;;;;;;;17.90;9.77;;;11.20;63.00;;;;;;5997330;23;114354;-82
2022/11/11 09:26:57;;;;;;;36.88;11.15;;;11.20;62.70;;;;;;5976447;23;114556;-82
2022/11/11 09:29:44;;;;;;;16.13;9.52;;;11.40;62.60;;;;;;5996098;23;115511;-82
2022/11/11 09:32:30;;;;;;;14.55;8.75;;;11.50;62.30;;;;;;5996441;23;115256;-81
2022/11/11 09:35:17;;;;;;;94.03;14.07;;;11.60;61.90;;;;;;5997267;23;114067;-82
2022/11/11 09:38:02;;;;;;;17.35;9.02;;;11.70;61.80;;;;;;5975728;23;114273;-82
2022/11/11 09:41:07;;;;;;;37.28;12.55;;;11.80;61.50;;;;;;5993895;23;114849;-82
2022/11/11 09:43:53;;;;;;;17.50;9.15;;;11.90;61.30;;;;;;5996152;23;115300;-82
2022/11/11 09:47:21;;;;;;;21.92;11.43;;;11.80;61.10;;;;;;5997204;23;114184;-82
2022/11/11 09:50:24;;;;;;;27.02;10.88;;;11.80;61.30;;;;;;5997029;23;115225;-82
2022/11/11 09:53:19;;;;;;;31.10;11.57;;;11.80;61.50;;;;;;5950813;23;116014;-82
2022/11/11 09:56:10;;;;;;;13.35;8.52;;;11.80;61.70;;;;;;5976896;23;114563;-82
2022/11/11 09:59:42;;;;;;;18.35;8.50;;;11.80;61.60;;;;;;5969878;23;114304;-81
2022/11/11 10:03:00;;;;;;;21.08;9.32;;;11.70;61.50;;;;;;5969637;23;114400;-84
2022/11/11 10:05:55;;;;;;;16.27;8.77;;;11.70;61.80;;;;;;5987623;23;115017;-82
2022/11/11 10:09:01;;;;;;;11.70;7.80;;;11.80;61.80;;;;;;5976506;23;114711;-82
2022/11/11 10:11:56;;;;;;;;;;;11.80;61.90;;;;;;5960189;23;114080;-82
2022/11/11 10:14:45;;;;;;;16.83;9.97;;;11.70;62.70;;;;;;5997962;23;114274;-82
2022/11/11 10:17:55;;;;;;;20.60;11.57;;;11.80;61.90;;;;;;5958940;23;115243;-82
2022/11/11 10:20:42;;;;;;;21.20;11.07;;;11.90;61.50;;;;;;5976522;23;114639;-83
2022/11/11 10:23:31;;;;;;;18.73;10.00;;;11.90;61.50;;;;;;5975502;23;114506;-82
2022/11/11 10:26:24;;;;;;;18.17;10.13;;;12.00;61.50;;;;;;5975340;23;114539;-83
2022/11/11 10:29:21;;;;;;;16.38;8.85;;;12.00;61.40;;;;;;5995058;23;114861;-82
2022/11/11 10:32:32;;;;;;;17.85;9.93;;;12.20;61.20;;;;;;5954601;23;114647;-83
2022/11/11 10:35:31;;;;;;;15.27;9.23;;;12.20;60.90;;;;;;5960039;23;114961;-81
2022/11/11 10:38:57;;;;;;;16.98;9.48;;;12.10;61.00;;;;;;5975099;23;114280;-82
2022/11/11 10:41:46;;;;;;;18.85;10.18;;;12.20;61.20;;;;;;5994499;23;114876;-80
2022/11/11 10:44:35;;;;;;;21.73;10.43;;;12.20;60.90;;;;;;5974147;23;115934;-80
2022/11/11 10:47:41;;;;;;;21.48;9.93;;;12.20;61.20;;;;;;5996529;23;114244;-81
2022/11/11 10:50:40;;;;;;;18.08;9.85;;;12.20;61.20;;;;;;5975305;23;114905;-81
2022/11/11 10:53:35;;;;;;;16.70;8.57;;;12.30;61.20;;;;;;5974877;23;114937;-82
2022/11/11 10:56:47;;;;;;;15.77;9.63;;;12.40;60.60;;;;;;5995440;23;114604;-81
2022/11/11 10:59:52;;;;;;;14.95;9.00;;;12.40;60.80;;;;;;5995185;23;115851;-82
2022/11/11 11:03:02;;;;;;;16.58;8.10;;;12.50;60.80;;;;;;5957812;23;114488;-82
2022/11/11 11:05:55;;;;;;;15.27;6.93;;;12.50;60.70;;;;;;5969831;23;116193;-81
2022/11/11 11:08:58;;;;;;;12.07;6.00;;;12.60;60.70;;;;;;5975842;23;114664;-81
2022/11/11 11:11:54;;;;;;;11.35;5.53;;;12.60;60.60;;;;;;5975938;23;114956;-81
2022/11/11 11:14:44;;;;;;;11.35;5.78;;;12.60;60.40;;;;;;5975097;23;114449;-82
2022/11/11 11:17:55;;;;;;;13.13;5.88;;;12.70;60.50;;;;;;5967657;23;115494;-81
2022/11/11 11:20:58;;;;;;;12.48;5.13;;;12.70;60.50;;;;;;5978339;23;115232;-81
2022/11/11 11:23:44;;;;;;;9.52;4.72;;;12.70;60.60;;;;;;5996452;23;114552;-81
2022/11/11 11:26:44;;;;;;;9.52;4.43;;;12.70;60.20;;;;;;5996359;23;114251;-81
2022/11/11 11:29:50;;;;;;;9.40;4.47;;;12.80;59.90;;;;;;5974129;23;114933;-82
2022/11/11 11:32:35;;;;;;;7.75;3.80;;;12.80;59.60;;;;;;5995488;23;114691;-81
2022/11/11 11:35:40;;;;;;;12.32;4.30;;;12.80;59.50;;;;;;5975202;23;114114;-81
2022/11/11 11:38:39;;;;;;;11.13;4.80;;;12.90;59.50;;;;;;5974790;23;114195;-81
2022/11/11 11:41:43;;;;;;;9.38;4.30;;;13.00;59.10;;;;;;5973860;23;114958;-82
2022/11/11 11:44:37;;;;;;;8.70;3.60;;;12.90;58.40;;;;;;5995167;23;114620;-81
2022/11/11 11:47:33;;;;;;;8.80;2.97;;;12.90;58.10;;;;;;5996121;23;114303;-82
2022/11/11 11:50:46;;;;;;;7.50;3.03;;;12.90;57.90;;;;;;5974894;23;114290;-82
2022/11/11 11:53:48;;;;;;;10.75;3.40;;;12.90;57.50;;;;;;5973964;23;115058;-81
2022/11/11 11:56:40;;;;;;;5.65;2.58;;;12.90;57.20;;;;;;5973953;23;114819;-82
2022/11/11 12:00:15;;;;;;;11.32;3.20;;;12.90;57.10;;;;;;5955658;23;114283;-82
2022/11/11 12:03:17;;;;;;;10.15;3.33;;;12.90;57.30;;;;;;5995395;23;114198;-81
2022/11/11 12:06:15;;;;;;;8.35;3.17;;;12.90;57.20;;;;;;5994900;23;115411;-81
2022/11/11 12:09:22;;;;;;;6.30;2.78;;;12.90;57.30;;;;;;5974860;23;114607;-81
2022/11/11 12:12:46;;;;;;;8.73;3.65;;;12.90;57.30;;;;;;5977964;23;114520;-82
2022/11/11 12:15:57;;;;;;;16.63;4.32;;;12.90;57.30;;;;;;5880764;23;114295;-82
2022/11/11 12:19:01;;;;;;;8.20;3.97;;;13.00;57.50;;;;;;5879779;23;114790;-81
2022/11/11 12:22:02;;;;;;;13.37;5.40;;;13.00;57.20;;;;;;5969452;23;117209;-81
2022/11/11 12:25:06;;;;;;;12.13;3.75;;;13.00;57.50;;;;;;5974569;23;114441;-81
2022/11/11 12:27:59;;;;;;;7.53;3.45;;;13.00;57.20;;;;;;5995838;23;114273;-81
2022/11/11 12:30:49;;;;;;;10.13;3.63;;;13.00;57.00;;;;;;5995859;23;114856;-82
2022/11/11 12:33:49;;;;;;;9.93;4.15;;;13.00;57.00;;;;;;5955567;23;114692;-81
2022/11/11 12:36:44;;;;;;;9.48;4.88;;;13.10;57.20;;;;;;5971735;23;114268;-82
2022/11/11 12:39:51;;;;;;;9.48;4.55;;;13.00;57.50;;;;;;5995388;23;114298;-82
2022/11/11 12:43:02;;;;;;;10.70;5.38;;;13.10;57.60;;;;;;5994962;23;115240;-81
2022/11/11 12:46:09;;;;;;;10.18;4.55;;;13.10;57.60;;;;;;5978163;23;114632;-81
2022/11/11 12:49:13;;;;;;;11.75;4.60;;;13.10;57.80;;;;;;5997194;23;114918;-81
2022/11/11 12:52:04;;;;;;;7.60;3.83;;;13.10;57.80;;;;;;5979430;23;114640;-81
2022/11/11 12:55:02;;;;;;;9.45;3.95;;;13.10;57.80;;;;;;5996217;23;114819;-82
2022/11/11 12:58:04;;;;;;;7.28;3.45;;;13.10;57.70;;;;;;5996114;23;114716;-81
2022/11/11 13:01:08;;;;;;;7.53;4.05;;;13.10;57.90;;;;;;5997302;23;114394;-81
2022/11/11 13:04:08;;;;;;;17.03;4.63;;;13.00;57.80;;;;;;5997965;23;114336;-82
2022/11/11 13:07:20;;;;;;;10.50;5.53;;;13.00;57.90;;;;;;5977586;23;116110;-82
2022/11/11 13:10:18;;;;;;;10.52;4.55;;;13.00;58.00;;;;;;5996121;23;114557;-82
2022/11/11 13:13:15;;;;;;;12.00;5.45;;;13.00;58.20;;;;;;5977057;23;114318;-81
2022/11/11 13:16:01;;;;;;;9.82;4.93;;;12.90;58.20;;;;;;5997239;23;114364;-82
2022/11/11 13:18:57;;;;;;;9.20;5.55;;;12.90;58.40;;;;;;5974895;23;115794;-82
2022/11/11 13:22:04;;;;;;;12.77;6.00;;;12.80;58.40;;;;;;5975182;23;115164;-82
2022/11/11 13:24:50;;;;;;;13.77;6.35;;;12.80;58.40;;;;;;5958262;23;114177;-81
2022/11/11 13:27:42;;;;;;;11.48;6.45;;;12.70;58.80;;;;;;5976039;23;114574;-81
2022/11/11 13:30:45;;;;;;;29.75;8.45;;;12.70;58.90;;;;;;5954891;23;115354;-82
2022/11/11 13:34:20;;;;;;;19.27;6.93;;;12.70;59.10;;;;;;5996408;23;115365;-81
2022/11/11 13:38:00;;;;;;;14.70;7.07;;;12.70;59.00;;;;;;5963430;23;114112;-82
2022/11/11 13:41:04;;;;;;;19.67;7.20;;;12.70;59.20;;;;;;5989483;23;114164;-81
2022/11/11 13:43:59;;;;;;;39.83;10.57;;;12.60;59.40;;;;;;5935278;23;118688;-81
2022/11/11 13:46:45;;;;;;;79.85;16.13;;;12.60;59.50;;;;;;5976819;23;114804;-81
2022/11/11 13:49:35;;;;;;;14.65;7.50;;;12.50;59.70;;;;;;5990986;23;114083;-81
2022/11/11 13:52:31;;;;;;;19.02;8.60;;;12.60;59.60;;;;;;5987490;23;114306;-82
2022/11/11 13:55:33;;;;;;;12.00;7.50;;;12.50;59.60;;;;;;5978169;23;115564;-81
2022/11/11 13:58:44;;;;;;;19.77;7.95;;;12.50;59.70;;;;;;5943066;23;116074;-81
2022/11/11 14:02:21;;;;;;;12.38;7.32;;;12.50;59.80;;;;;;5978959;23;114431;-82
2022/11/11 14:05:22;;;;;;;17.08;8.60;;;12.50;59.80;;;;;;5997422;23;114024;-81
2022/11/11 14:08:49;;;;;;;17.40;7.93;;;12.40;59.90;;;;;;5995371;23;117466;-82
2022/11/11 14:11:52;;;;;;;14.55;7.60;;;12.40;60.00;;;;;;5994654;23;114864;-82
2022/11/11 14:14:58;;;;;;;13.18;7.18;;;12.30;60.20;;;;;;5977371;23;114141;-81
2022/11/11 14:17:47;;;;;;;14.63;7.60;;;12.30;60.30;;;;;;5977173;23;114456;-82
2022/11/11 14:21:06;;;;;;;21.05;8.98;;;12.20;60.40;;;;;;5974250;23;115761;-81
2022/11/11 14:23:53;;;;;;;11.82;7.28;;;12.20;60.40;;;;;;5986735;23;116846;-81
2022/11/11 14:27:01;;;;;;;10.30;6.40;;;12.10;60.50;;;;;;5975511;23;114584;-82
2022/11/11 14:30:39;;;;;;;13.13;6.95;;;12.00;60.40;;;;;;5996299;23;114850;-82
2022/11/11 14:34:04;;;;;;;10.40;6.75;;;12.00;60.50;;;;;;5995559;23;114819;-82
2022/11/11 14:37:03;;;;;;;11.07;6.65;;;11.90;60.80;;;;;;5977508;23;114235;-81
2022/11/11 14:39:54;;;;;;;11.20;6.72;;;11.80;60.90;;;;;;5995438;23;114206;-82
2022/11/11 14:42:43;;;;;;;13.85;7.03;;;11.80;61.00;;;;;;5955508;23;114263;-82
2022/11/11 14:45:44;;;;;;;14.27;7.40;;;11.80;61.10;;;;;;5994836;23;114938;-81
2022/11/11 14:48:56;;;;;;;11.65;6.85;;;11.70;61.10;;;;;;5995695;23;115326;-82
2022/11/11 14:51:47;;;;;;;11.95;7.00;;;11.70;61.20;;;;;;5976375;23;114968;-82
2022/11/11 14:54:46;;;;;;;16.75;8.32;;;11.70;61.30;;;;;;5951439;23;114076;-82
2022/11/11 14:57:40;;;;;;;14.90;7.00;;;11.60;61.40;;;;;;5974204;23;114787;-82
2022/11/11 15:00:42;;;;;;;16.52;7.10;;;11.50;61.70;;;;;;5974253;23;114822;-81
2022/11/11 15:03:32;;;;;;;15.77;7.38;;;11.50;61.80;;;;;;5957319;23;115022;-82
2022/11/11 15:06:25;;;;;;;13.93;7.88;;;11.40;62.00;;;;;;5996635;23;114202;-82
2022/11/11 15:09:29;;;;;;;16.42;8.27;;;11.40;62.00;;;;;;5954648;23;114963;-82
2022/11/11 15:12:49;;;;;;;20.67;11.20;;;11.30;62.00;;;;;;5995014;23;115180;-82
2022/11/11 15:15:57;;;;;;;20.77;11.02;;;11.40;62.00;;;;;;5979032;23;114036;-81
2022/11/11 15:19:01;;;;;;;;;;;11.30;62.00;;;;;;5976120;23;114310;-81
2022/11/11 15:22:03;;;;;;;26.42;12.32;;;11.20;62.10;;;;;;5995453;23;115148;-82
2022/11/11 15:24:58;;;;;;;25.02;12.63;;;11.10;62.40;;;;;;5950105;23;115605;-81
2022/11/11 15:27:53;;;;;;;24.88;13.25;;;11.20;62.40;;;;;;5975427;23;114609;-82
2022/11/11 15:30:56;;;;;;;26.27;13.90;;;11.20;62.40;;;;;;5974889;23;114194;-81
2022/11/11 15:34:00;;;;;;;21.85;11.57;;;11.20;62.40;;;;;;5995144;23;115035;-82
2022/11/11 15:37:09;;;;;;;20.63;11.95;;;11.20;62.30;;;;;;5974355;23;115731;-81
2022/11/11 15:39:56;;;;;;;23.52;12.00;;;11.10;62.40;;;;;;5978456;23;114162;-82
2022/11/11 15:42:48;;;;;;;28.00;16.42;;;11.10;62.50;;;;;;5996232;23;114419;-81
2022/11/11 15:45:35;;;;;;;20.80;11.55;;;11.00;62.50;;;;;;5974907;23;114803;-82
2022/11/11 15:48:34;;;;;;;21.40;12.25;;;11.10;62.50;;;;;;5973730;23;114797;-82
2022/11/11 15:51:27;;;;;;;22.40;12.23;;;11.00;62.40;;;;;;5975563;23;114120;-81
2022/11/11 15:54:21;;;;;;;22.73;12.57;;;11.00;62.50;;;;;;5996449;23;114588;-82
2022/11/11 15:57:29;;;;;;;25.00;13.85;;;11.00;62.60;;;;;;5995830;23;115034;-81
2022/11/11 16:00:27;;;;;;;24.58;13.95;;;11.00;62.40;;;;;;5995534;23;114656;-81
2022/11/11 16:03:22;;;;;;;21.88;12.23;;;11.00;62.50;;;;;;5995998;23;114316;-81
2022/11/11 16:06:11;;;;;;;21.77;13.43;;;10.90;62.60;;;;;;5976391;23;114428;-81